Terminal Aerodrome Forecast
Issued by NWS

Home | Current Version | Previous Version | Graphics & Text | Print | Product List | Glossary On
Versions: 1 2 3 4 5 6 7 8 9 10 11 12 13 14
619
FTUS43 KICT 252335
TAFCNU
TAF
KCNU 252335Z 2600/2624 03009KT P6SM VCSH SCT050 OVC080
     FM260500 07005KT P6SM OVC070=

USA.gov is the U.S. government's official web portal to all federal, state and local government web resources and services.